sensor_id;sensor_type;location;lat;lon;timestamp;pressure;altitude;pressure_sealevel;temperature;humidity
44309;BME280;30022;55.846;37.340;2023-02-10T00:00:43;46799.88;;;-143.51;100.00
44309;BME280;30022;55.846;37.340;2023-02-10T00:03:08;46791.97;;;-143.51;100.00
44309;BME280;30022;55.846;37.340;2023-02-10T00:05:34;46815.69;;;-143.51;100.00
44309;BME280;30022;55.846;37.340;2023-02-10T00:07:59;46790.00;;;-143.51;100.00
44309;BME280;30022;55.846;37.340;2023-02-10T00:10:25;46791.97;;;-143.51;100.00
44309;BME280;30022;55.846;37.340;2023-02-10T00:12:50;46801.84;;;-143.51;100.00
44309;BME280;30022;55.846;37.340;2023-02-10T00:15:16;46780.13;;;-143.51;100.00
44309;BME280;30022;55.846;37.340;2023-02-10T00:17:42;46784.09;;;-143.51;100.00
44309;BME280;30022;55.846;37.340;2023-02-10T00:20:07;46778.16;;;-143.51;100.00
44309;BME280;30022;55.846;37.340;2023-02-10T00:22:33;46772.22;;;-143.51;100.00
44309;BME280;30022;55.846;37.340;2023-02-10T00:24:59;46780.13;;;-143.51;100.00
44309;BME280;30022;55.846;37.340;2023-02-10T00:27:24;46793.97;;;-143.51;100.00
44309;BME280;30022;55.846;37.340;2023-02-10T00:29:51;46764.34;;;-143.51;100.00
44309;BME280;30022;55.846;37.340;2023-02-10T00:32:17;46754.47;;;-143.51;100.00
44309;BME280;30022;55.846;37.340;2023-02-10T00:34:43;46762.34;;;-143.51;100.00
44309;BME280;30022;55.846;37.340;2023-02-10T00:37:08;46778.16;;;-143.51;100.00
44309;BME280;30022;55.846;37.340;2023-02-10T00:39:34;46782.09;;;-143.51;100.00
44309;BME280;30022;55.846;37.340;2023-02-10T00:42:00;46764.34;;;-143.51;100.00
44309;BME280;30022;55.846;37.340;2023-02-10T00:44:25;46786.06;;;-143.51;100.00
44309;BME280;30022;55.846;37.340;2023-02-10T00:46:51;46766.31;;;-143.51;100.00
44309;BME280;30022;55.846;37.340;2023-02-10T00:49:16;46801.84;;;-143.51;100.00
44309;BME280;30022;55.846;37.340;2023-02-10T00:51:42;46748.53;;;-143.51;100.00
44309;BME280;30022;55.846;37.340;2023-02-10T00:54:08;46774.22;;;-143.51;100.00
44309;BME280;30022;55.846;37.340;2023-02-10T00:56:34;46772.22;;;-143.51;100.00
44309;BME280;30022;55.846;37.340;2023-02-10T00:58:59;46758.41;;;-143.51;100.00
44309;BME280;30022;55.846;37.340;2023-02-10T01:01:25;46766.31;;;-143.51;100.00
44309;BME280;30022;55.846;37.340;2023-02-10T01:03:50;46760.38;;;-143.51;100.00
44309;BME280;30022;55.846;37.340;2023-02-10T01:06:16;46738.66;;;-143.51;100.00
44309;BME280;30022;55.846;37.340;2023-02-10T01:08:42;46776.19;;;-143.51;100.00
44309;BME280;30022;55.846;37.340;2023-02-10T01:11:09;46793.97;;;-143.51;100.00
44309;BME280;30022;55.846;37.340;2023-02-10T01:13:35;46770.25;;;-143.51;100.00
44309;BME280;30022;55.846;37.340;2023-02-10T01:16:05;46748.53;;;-143.51;100.00
44309;BME280;30022;55.846;37.340;2023-02-10T01:18:31;46774.22;;;-143.51;100.00
44309;BME280;30022;55.846;37.340;2023-02-10T01:20:57;46770.25;;;-143.51;100.00
44309;BME280;30022;55.846;37.340;2023-02-10T01:23:22;46776.19;;;-143.51;100.00
44309;BME280;30022;55.846;37.340;2023-02-10T01:25:48;46780.13;;;-143.51;100.00
44309;BME280;30022;55.846;37.340;2023-02-10T01:28:14;46776.19;;;-143.51;100.00
44309;BME280;30022;55.846;37.340;2023-02-10T01:30:40;46740.63;;;-143.51;100.00
44309;BME280;30022;55.846;37.340;2023-02-10T01:33:05;46776.19;;;-143.51;100.00
44309;BME280;30022;55.846;37.340;2023-02-10T01:35:31;46793.97;;;-143.51;100.00
44309;BME280;30022;55.846;37.340;2023-02-10T01:37:57;46752.47;;;-143.51;100.00
44309;BME280;30022;55.846;37.340;2023-02-10T01:40:26;46784.09;;;-143.51;100.00
44309;BME280;30022;55.846;37.340;2023-02-10T01:42:51;46736.69;;;-143.51;100.00
44309;BME280;30022;55.846;37.340;2023-02-10T01:47:43;46782.09;;;-143.51;100.00
44309;BME280;30022;55.846;37.340;2023-02-10T01:50:09;46754.47;;;-143.51;100.00
44309;BME280;30022;55.846;37.340;2023-02-10T01:52:35;46784.09;;;-143.51;100.00
44309;BME280;30022;55.846;37.340;2023-02-10T01:57:28;46780.13;;;-143.51;100.00
44309;BME280;30022;55.846;37.340;2023-02-10T01:59:54;46791.97;;;-143.51;100.00
44309;BME280;30022;55.846;37.340;2023-02-10T02:02:20;46782.09;;;-143.51;100.00
44309;BME280;30022;55.846;37.340;2023-02-10T02:04:48;46772.22;;;-143.51;100.00
44309;BME280;30022;55.846;37.340;2023-02-10T02:07:14;46760.38;;;-143.51;100.00
44309;BME280;30022;55.846;37.340;2023-02-10T02:09:40;46784.09;;;-143.51;100.00
44309;BME280;30022;55.846;37.340;2023-02-10T02:14:41;46748.53;;;-143.51;100.00
44309;BME280;30022;55.846;37.340;2023-02-10T02:32:48;46758.41;;;-143.51;100.00
44309;BME280;30022;55.846;37.340;2023-02-10T02:35:23;46764.34;;;-143.51;100.00
44309;BME280;30022;55.846;37.340;2023-02-10T02:37:51;46760.38;;;-143.51;100.00
44309;BME280;30022;55.846;37.340;2023-02-10T02:40:18;46736.69;;;-143.51;100.00
44309;BME280;30022;55.846;37.340;2023-02-10T02:42:43;46752.47;;;-143.51;100.00
44309;BME280;30022;55.846;37.340;2023-02-10T02:45:10;46756.44;;;-143.51;100.00
44309;BME280;30022;55.846;37.340;2023-02-10T02:47:41;46764.34;;;-143.51;100.00
44309;BME280;30022;55.846;37.340;2023-02-10T02:50:22;46760.38;;;-143.51;100.00
44309;BME280;30022;55.846;37.340;2023-02-10T02:55:49;46760.38;;;-143.51;100.00
44309;BME280;30022;55.846;37.340;2023-02-10T03:00:43;46760.38;;;-143.51;100.00
44309;BME280;30022;55.846;37.340;2023-02-10T03:03:09;46764.34;;;-143.51;100.00
44309;BME280;30022;55.846;37.340;2023-02-10T03:05:36;46758.41;;;-143.51;100.00
44309;BME280;30022;55.846;37.340;2023-02-10T03:08:01;46799.88;;;-143.51;100.00
44309;BME280;30022;55.846;37.340;2023-02-10T03:10:27;46762.34;;;-143.51;100.00
44309;BME280;30022;55.846;37.340;2023-02-10T03:12:53;46790.00;;;-143.51;100.00
44309;BME280;30022;55.846;37.340;2023-02-10T03:15:18;46764.34;;;-143.51;100.00
44309;BME280;30022;55.846;37.340;2023-02-10T03:17:44;46782.09;;;-143.51;100.00
44309;BME280;30022;55.846;37.340;2023-02-10T03:20:10;46772.22;;;-143.51;100.00
44309;BME280;30022;55.846;37.340;2023-02-10T03:22:36;46754.47;;;-143.51;100.00
44309;BME280;30022;55.846;37.340;2023-02-10T03:25:01;46784.09;;;-143.51;100.00
44309;BME280;30022;55.846;37.340;2023-02-10T03:27:29;46754.47;;;-143.51;100.00
44309;BME280;30022;55.846;37.340;2023-02-10T03:29:54;46766.31;;;-143.51;100.00
44309;BME280;30022;55.846;37.340;2023-02-10T03:32:20;46774.22;;;-143.51;100.00
44309;BME280;30022;55.846;37.340;2023-02-10T03:34:45;46774.22;;;-143.51;100.00
44309;BME280;30022;55.846;37.340;2023-02-10T03:37:11;46766.31;;;-143.51;100.00
44309;BME280;30022;55.846;37.340;2023-02-10T03:39:37;46764.34;;;-143.51;100.00
44309;BME280;30022;55.846;37.340;2023-02-10T03:42:03;46750.50;;;-143.51;100.00
44309;BME280;30022;55.846;37.340;2023-02-10T03:44:29;46762.34;;;-143.51;100.00
44309;BME280;30022;55.846;37.340;2023-02-10T03:46:54;46770.25;;;-143.51;100.00
44309;BME280;30022;55.846;37.340;2023-02-10T03:49:20;46776.19;;;-143.51;100.00
44309;BME280;30022;55.846;37.340;2023-02-10T03:51:45;46740.63;;;-143.51;100.00
44309;BME280;30022;55.846;37.340;2023-02-10T03:54:11;46738.66;;;-143.51;100.00
44309;BME280;30022;55.846;37.340;2023-02-10T03:56:37;46786.06;;;-143.51;100.00
44309;BME280;30022;55.846;37.340;2023-02-10T03:59:03;46750.50;;;-143.51;100.00
44309;BME280;30022;55.846;37.340;2023-02-10T04:01:29;46772.22;;;-143.51;100.00
44309;BME280;30022;55.846;37.340;2023-02-10T04:03:54;46778.16;;;-143.51;100.00
44309;BME280;30022;55.846;37.340;2023-02-10T04:06:20;46766.31;;;-143.51;100.00
44309;BME280;30022;55.846;37.340;2023-02-10T04:08:46;46752.47;;;-143.51;100.00
44309;BME280;30022;55.846;37.340;2023-02-10T04:11:12;46764.34;;;-143.51;100.00
44309;BME280;30022;55.846;37.340;2023-02-10T04:13:38;46736.69;;;-143.51;100.00
44309;BME280;30022;55.846;37.340;2023-02-10T04:16:05;46784.09;;;-143.51;100.00
44309;BME280;30022;55.846;37.340;2023-02-10T04:18:31;46762.34;;;-143.51;100.00
44309;BME280;30022;55.846;37.340;2023-02-10T04:20:56;46758.41;;;-143.51;100.00
44309;BME280;30022;55.846;37.340;2023-02-10T04:23:22;46766.31;;;-143.51;100.00
44309;BME280;30022;55.846;37.340;2023-02-10T04:25:48;46768.28;;;-143.51;100.00
44309;BME280;30022;55.846;37.340;2023-02-10T04:28:13;46760.38;;;-143.51;100.00
44309;BME280;30022;55.846;37.340;2023-02-10T04:30:39;46764.34;;;-143.51;100.00
44309;BME280;30022;55.846;37.340;2023-02-10T04:33:05;46766.31;;;-143.51;100.00
44309;BME280;30022;55.846;37.340;2023-02-10T04:35:30;46788.03;;;-143.51;100.00
44309;BME280;30022;55.846;37.340;2023-02-10T04:37:56;46752.47;;;-143.51;100.00
44309;BME280;30022;55.846;37.340;2023-02-10T04:40:24;46758.41;;;-143.51;100.00
44309;BME280;30022;55.846;37.340;2023-02-10T04:42:49;46758.41;;;-143.51;100.00
44309;BME280;30022;55.846;37.340;2023-02-10T04:45:15;46768.28;;;-143.51;100.00
44309;BME280;30022;55.846;37.340;2023-02-10T04:47:40;46756.44;;;-143.51;100.00
44309;BME280;30022;55.846;37.340;2023-02-10T04:50:06;46778.16;;;-143.51;100.00
44309;BME280;30022;55.846;37.340;2023-02-10T04:52:32;46774.22;;;-143.51;100.00
44309;BME280;30022;55.846;37.340;2023-02-10T04:54:57;46762.34;;;-143.51;100.00
44309;BME280;30022;55.846;37.340;2023-02-10T04:57:23;46748.53;;;-143.51;100.00
44309;BME280;30022;55.846;37.340;2023-02-10T04:59:48;46782.09;;;-143.51;100.00
44309;BME280;30022;55.846;37.340;2023-02-10T05:02:14;46764.34;;;-143.51;100.00
44309;BME280;30022;55.846;37.340;2023-02-10T05:04:40;46740.63;;;-143.51;100.00
44309;BME280;30022;55.846;37.340;2023-02-10T05:07:05;46746.56;;;-143.51;100.00
44309;BME280;30022;55.846;37.340;2023-02-10T05:09:31;46772.22;;;-143.51;100.00
44309;BME280;30022;55.846;37.340;2023-02-10T05:11:56;46762.34;;;-143.51;100.00
44309;BME280;30022;55.846;37.340;2023-02-10T05:14:22;46764.34;;;-143.51;100.00
44309;BME280;30022;55.846;37.340;2023-02-10T05:16:48;46772.22;;;-143.51;100.00
44309;BME280;30022;55.846;37.340;2023-02-10T05:19:13;46764.34;;;-143.51;100.00
44309;BME280;30022;55.846;37.340;2023-02-10T05:21:39;46732.75;;;-143.51;100.00
44309;BME280;30022;55.846;37.340;2023-02-10T05:24:04;46764.34;;;-143.51;100.00
44309;BME280;30022;55.846;37.340;2023-02-10T05:26:30;46750.50;;;-143.51;100.00
44309;BME280;30022;55.846;37.340;2023-02-10T05:28:55;46754.47;;;-143.51;100.00
44309;BME280;30022;55.846;37.340;2023-02-10T05:31:21;46760.38;;;-143.51;100.00
44309;BME280;30022;55.846;37.340;2023-02-10T05:33:47;46758.41;;;-143.51;100.00
44309;BME280;30022;55.846;37.340;2023-02-10T05:36:12;46758.41;;;-143.51;100.00
44309;BME280;30022;55.846;37.340;2023-02-10T05:38:38;46746.56;;;-143.51;100.00
44309;BME280;30022;55.846;37.340;2023-02-10T05:41:03;46748.53;;;-143.51;100.00
44309;BME280;30022;55.846;37.340;2023-02-10T05:43:29;46746.56;;;-143.51;100.00
44309;BME280;30022;55.846;37.340;2023-02-10T05:45:55;46760.38;;;-143.51;100.00
44309;BME280;30022;55.846;37.340;2023-02-10T05:48:20;46772.22;;;-143.51;100.00
44309;BME280;30022;55.846;37.340;2023-02-10T05:50:49;46748.53;;;-143.51;100.00
44309;BME280;30022;55.846;37.340;2023-02-10T05:53:14;46756.44;;;-143.51;100.00
44309;BME280;30022;55.846;37.340;2023-02-10T05:55:40;46756.44;;;-143.51;100.00
44309;BME280;30022;55.846;37.340;2023-02-10T05:58:05;46740.63;;;-143.51;100.00
44309;BME280;30022;55.846;37.340;2023-02-10T06:00:31;46742.59;;;-143.51;100.00
44309;BME280;30022;55.846;37.340;2023-02-10T06:02:57;46748.53;;;-143.51;100.00
44309;BME280;30022;55.846;37.340;2023-02-10T06:05:22;46774.22;;;-143.51;100.00
44309;BME280;30022;55.846;37.340;2023-02-10T06:07:48;46784.09;;;-143.51;100.00
44309;BME280;30022;55.846;37.340;2023-02-10T06:10:14;46738.66;;;-143.51;100.00
44309;BME280;30022;55.846;37.340;2023-02-10T06:12:41;46744.59;;;-143.51;100.00
44309;BME280;30022;55.846;37.340;2023-02-10T06:15:07;46750.50;;;-143.51;100.00
44309;BME280;30022;55.846;37.340;2023-02-10T06:17:33;46736.69;;;-143.51;100.00
44309;BME280;30022;55.846;37.340;2023-02-10T06:19:59;46772.22;;;-143.51;100.00
44309;BME280;30022;55.846;37.340;2023-02-10T06:22:25;46750.50;;;-143.51;100.00
44309;BME280;30022;55.846;37.340;2023-02-10T06:24:50;46758.41;;;-143.51;100.00
44309;BME280;30022;55.846;37.340;2023-02-10T06:27:16;46740.63;;;-143.51;100.00
44309;BME280;30022;55.846;37.340;2023-02-10T06:29:42;46714.97;;;-143.51;100.00
44309;BME280;30022;55.846;37.340;2023-02-10T06:32:08;46732.75;;;-143.51;100.00
44309;BME280;30022;55.846;37.340;2023-02-10T06:34:33;46728.78;;;-143.51;100.00
44309;BME280;30022;55.846;37.340;2023-02-10T06:36:59;46754.47;;;-143.51;100.00
44309;BME280;30022;55.846;37.340;2023-02-10T06:39:24;46760.38;;;-143.51;100.00
44309;BME280;30022;55.846;37.340;2023-02-10T06:41:50;46722.88;;;-143.51;100.00
44309;BME280;30022;55.846;37.340;2023-02-10T06:44:15;46734.72;;;-143.51;100.00
44309;BME280;30022;55.846;37.340;2023-02-10T06:46:41;46738.66;;;-143.51;100.00
44309;BME280;30022;55.846;37.340;2023-02-10T06:49:07;46711.00;;;-143.51;100.00
44309;BME280;30022;55.846;37.340;2023-02-10T06:51:32;46726.81;;;-143.51;100.00
44309;BME280;30022;55.846;37.340;2023-02-10T06:53:58;46722.88;;;-143.51;100.00
44309;BME280;30022;55.846;37.340;2023-02-10T06:56:23;46720.88;;;-143.51;100.00
44309;BME280;30022;55.846;37.340;2023-02-10T06:58:49;46716.94;;;-143.51;100.00
44309;BME280;30022;55.846;37.340;2023-02-10T07:01:15;46718.91;;;-143.51;100.00
44309;BME280;30022;55.846;37.340;2023-02-10T07:03:42;46732.75;;;-143.51;100.00
44309;BME280;30022;55.846;37.340;2023-02-10T07:06:07;46766.31;;;-143.51;100.00
44309;BME280;30022;55.846;37.340;2023-02-10T07:08:33;46742.59;;;-143.51;100.00
44309;BME280;30022;55.846;37.340;2023-02-10T07:10:59;46742.59;;;-143.51;100.00
44309;BME280;30022;55.846;37.340;2023-02-10T07:13:25;46740.63;;;-143.51;100.00
44309;BME280;30022;55.846;37.340;2023-02-10T07:15:50;46728.78;;;-143.51;100.00
44309;BME280;30022;55.846;37.340;2023-02-10T07:18:16;46720.88;;;-143.51;100.00
44309;BME280;30022;55.846;37.340;2023-02-10T07:20:41;46709.03;;;-143.51;100.00
44309;BME280;30022;55.846;37.340;2023-02-10T07:23:07;46714.97;;;-143.51;100.00
44309;BME280;30022;55.846;37.340;2023-02-10T07:25:33;46732.75;;;-143.51;100.00
44309;BME280;30022;55.846;37.340;2023-02-10T07:27:58;46752.47;;;-143.51;100.00
44309;BME280;30022;55.846;37.340;2023-02-10T07:30:24;46720.88;;;-143.51;100.00
44309;BME280;30022;55.846;37.340;2023-02-10T07:32:50;46730.75;;;-143.51;100.00
44309;BME280;30022;55.846;37.340;2023-02-10T07:35:15;46730.75;;;-143.51;100.00
44309;BME280;30022;55.846;37.340;2023-02-10T07:37:41;46685.34;;;-143.51;100.00
44309;BME280;30022;55.846;37.340;2023-02-10T07:40:07;46714.97;;;-143.51;100.00
44309;BME280;30022;55.846;37.340;2023-02-10T07:42:33;46716.94;;;-143.51;100.00
44309;BME280;30022;55.846;37.340;2023-02-10T07:45:34;46716.94;;;-143.51;100.00
44309;BME280;30022;55.846;37.340;2023-02-10T07:48:00;46718.91;;;-143.51;100.00
44309;BME280;30022;55.846;37.340;2023-02-10T07:50:26;46718.91;;;-143.51;100.00
44309;BME280;30022;55.846;37.340;2023-02-10T07:52:51;46722.88;;;-143.51;100.00
44309;BME280;30022;55.846;37.340;2023-02-10T07:55:18;46722.88;;;-143.51;100.00
44309;BME280;30022;55.846;37.340;2023-02-10T07:57:43;46722.88;;;-143.51;100.00
44309;BME280;30022;55.846;37.340;2023-02-10T08:00:09;46705.09;;;-143.51;100.00
44309;BME280;30022;55.846;37.340;2023-02-10T08:02:41;46728.78;;;-143.51;100.00
44309;BME280;30022;55.846;37.340;2023-02-10T08:05:06;46705.09;;;-143.51;100.00
44309;BME280;30022;55.846;37.340;2023-02-10T08:07:32;46728.78;;;-143.51;100.00
44309;BME280;30022;55.846;37.340;2023-02-10T08:09:58;46697.19;;;-143.51;100.00
44309;BME280;30022;55.846;37.340;2023-02-10T08:12:23;46722.88;;;-143.51;100.00
44309;BME280;30022;55.846;37.340;2023-02-10T08:14:49;46701.13;;;-143.51;100.00
44309;BME280;30022;55.846;37.340;2023-02-10T08:17:14;46711.00;;;-143.51;100.00
44309;BME280;30022;55.846;37.340;2023-02-10T08:19:40;46711.00;;;-143.51;100.00
44309;BME280;30022;55.846;37.340;2023-02-10T08:22:05;46720.88;;;-143.51;100.00
44309;BME280;30022;55.846;37.340;2023-02-10T08:24:31;46681.38;;;-143.51;100.00
44309;BME280;30022;55.846;37.340;2023-02-10T08:26:57;46681.38;;;-143.51;100.00
44309;BME280;30022;55.846;37.340;2023-02-10T08:29:22;46681.38;;;-143.51;100.00
44309;BME280;30022;55.846;37.340;2023-02-10T08:31:49;46689.28;;;-143.51;100.00
44309;BME280;30022;55.846;37.340;2023-02-10T08:34:15;46697.19;;;-143.51;100.00
44309;BME280;30022;55.846;37.340;2023-02-10T08:36:42;46677.44;;;-143.51;100.00
44309;BME280;30022;55.846;37.340;2023-02-10T08:39:14;46695.22;;;-143.51;100.00
44309;BME280;30022;55.846;37.340;2023-02-10T08:41:39;46687.31;;;-143.51;100.00
44309;BME280;30022;55.846;37.340;2023-02-10T08:44:05;46701.13;;;-143.51;100.00
44309;BME280;30022;55.846;37.340;2023-02-10T08:46:32;46689.28;;;-143.51;100.00
44309;BME280;30022;55.846;37.340;2023-02-10T08:48:57;46679.41;;;-143.51;100.00
44309;BME280;30022;55.846;37.340;2023-02-10T08:51:26;46687.31;;;-143.51;100.00
44309;BME280;30022;55.846;37.340;2023-02-10T08:53:52;46701.13;;;-143.51;100.00
44309;BME280;30022;55.846;37.340;2023-02-10T08:56:18;46691.25;;;-143.51;100.00
44309;BME280;30022;55.846;37.340;2023-02-10T08:58:44;46713.00;;;-143.51;100.00
44309;BME280;30022;55.846;37.340;2023-02-10T09:01:11;46679.41;;;-143.51;100.00
44309;BME280;30022;55.846;37.340;2023-02-10T09:03:37;46689.28;;;-143.51;100.00
44309;BME280;30022;55.846;37.340;2023-02-10T09:06:03;46669.53;;;-143.51;100.00
44309;BME280;30022;55.846;37.340;2023-02-10T09:08:31;46718.91;;;-143.51;100.00
44309;BME280;30022;55.846;37.340;2023-02-10T09:10:57;46687.31;;;-143.51;100.00
44309;BME280;30022;55.846;37.340;2023-02-10T09:13:23;46679.41;;;-143.51;100.00
44309;BME280;30022;55.846;37.340;2023-02-10T09:15:48;46681.38;;;-143.51;100.00
44309;BME280;30022;55.846;37.340;2023-02-10T09:18:14;46663.63;;;-143.51;100.00
44309;BME280;30022;55.846;37.340;2023-02-10T09:20:40;46689.28;;;-143.51;100.00
44309;BME280;30022;55.846;37.340;2023-02-10T09:23:27;46645.84;;;-143.51;100.00
44309;BME280;30022;55.846;37.340;2023-02-10T09:25:57;46691.25;;;-143.51;100.00
44309;BME280;30022;55.846;37.340;2023-02-10T09:28:49;46651.75;;;-143.51;100.00
44309;BME280;30022;55.846;37.340;2023-02-10T09:31:18;46649.78;;;-143.51;100.00
44309;BME280;30022;55.846;37.340;2023-02-10T09:33:48;46681.38;;;-143.51;100.00
44309;BME280;30022;55.846;37.340;2023-02-10T09:36:15;46689.28;;;-143.51;100.00
44309;BME280;30022;55.846;37.340;2023-02-10T09:38:41;46677.44;;;-143.51;100.00
44309;BME280;30022;55.846;37.340;2023-02-10T09:41:11;46673.50;;;-143.51;100.00
44309;BME280;30022;55.846;37.340;2023-02-10T09:46:16;46693.25;;;-143.51;100.00
44309;BME280;30022;55.846;37.340;2023-02-10T09:54:09;46677.44;;;-143.51;100.00
44309;BME280;30022;55.846;37.340;2023-02-10T09:56:35;46667.56;;;-143.51;100.00
44309;BME280;30022;55.846;37.340;2023-02-10T09:59:02;46675.47;;;-143.51;100.00
44309;BME280;30022;55.846;37.340;2023-02-10T10:02:03;46665.59;;;-143.51;100.00
44309;BME280;30022;55.846;37.340;2023-02-10T10:04:20;46673.50;;;-143.51;100.00
44309;BME280;30022;55.846;37.340;2023-02-10T10:06:51;46665.59;;;-143.51;100.00
44309;BME280;30022;55.846;37.340;2023-02-10T10:09:23;46665.59;;;-143.51;100.00
44309;BME280;30022;55.846;37.340;2023-02-10T10:11:52;46669.53;;;-143.51;100.00
44309;BME280;30022;55.846;37.340;2023-02-10T10:14:20;46659.66;;;-143.51;100.00
44309;BME280;30022;55.846;37.340;2023-02-10T10:31:45;46681.38;;;-143.51;100.00
44309;BME280;30022;55.846;37.340;2023-02-10T10:34:12;46659.66;;;-143.51;100.00
44309;BME280;30022;55.846;37.340;2023-02-10T10:36:44;46647.81;;;-143.51;100.00
44309;BME280;30022;55.846;37.340;2023-02-10T10:39:21;46683.38;;;-143.51;100.00
44309;BME280;30022;55.846;37.340;2023-02-10T10:41:47;46653.75;;;-143.51;99.50
44309;BME280;30022;55.846;37.340;2023-02-10T10:44:15;46661.63;;;-143.51;99.21
44309;BME280;30022;55.846;37.340;2023-02-10T10:46:52;46677.44;;;-143.51;98.82
44309;BME280;30022;55.846;37.340;2023-02-10T10:49:20;46681.38;;;-143.51;99.89
44309;BME280;30022;55.846;37.340;2023-02-10T10:51:46;46681.38;;;-143.51;99.03
44309;BME280;30022;55.846;37.340;2023-02-10T10:54:16;46669.53;;;-143.51;100.00
44309;BME280;30022;55.846;37.340;2023-02-10T10:56:44;46649.78;;;-143.51;100.00
44309;BME280;30022;55.846;37.340;2023-02-10T10:59:18;46681.38;;;-143.51;98.59
44309;BME280;30022;55.846;37.340;2023-02-10T11:01:46;46657.69;;;-143.51;100.00
44309;BME280;30022;55.846;37.340;2023-02-10T11:04:13;46671.50;;;-143.51;98.75
44309;BME280;30022;55.846;37.340;2023-02-10T11:06:39;46657.69;;;-143.51;99.01
44309;BME280;30022;55.846;37.340;2023-02-10T11:09:13;46645.84;;;-143.51;99.33
44309;BME280;30022;55.846;37.340;2023-02-10T11:11:43;46665.59;;;-143.51;98.84
44309;BME280;30022;55.846;37.340;2023-02-10T11:14:18;46669.53;;;-143.51;96.86
44309;BME280;30022;55.846;37.340;2023-02-10T11:16:46;46683.38;;;-143.51;98.13
44309;BME280;30022;55.846;37.340;2023-02-10T11:19:18;46649.78;;;-143.51;97.69
44309;BME280;30022;55.846;37.340;2023-02-10T11:21:44;46653.75;;;-143.51;97.69
44309;BME280;30022;55.846;37.340;2023-02-10T11:24:29;46641.88;;;-143.51;97.20
44309;BME280;30022;55.846;37.340;2023-02-10T11:27:12;46659.66;;;-143.51;97.12
44309;BME280;30022;55.846;37.340;2023-02-10T11:29:49;46679.41;;;-143.51;99.55
44309;BME280;30022;55.846;37.340;2023-02-10T11:32:18;46679.41;;;-143.51;97.51
44309;BME280;30022;55.846;37.340;2023-02-10T11:34:45;46669.53;;;-143.51;97.86
44309;BME280;30022;55.846;37.340;2023-02-10T11:37:13;46653.75;;;-143.51;99.04
44309;BME280;30022;55.846;37.340;2023-02-10T11:39:40;46643.88;;;-143.51;98.97
44309;BME280;30022;55.846;37.340;2023-02-10T11:42:16;46645.84;;;-143.51;100.00
44309;BME280;30022;55.846;37.340;2023-02-10T11:44:51;46669.53;;;-143.51;100.00
44309;BME280;30022;55.846;37.340;2023-02-10T11:47:17;46657.69;;;-143.51;100.00
44309;BME280;30022;55.846;37.340;2023-02-10T11:49:46;46669.53;;;-143.51;98.03
44309;BME280;30022;55.846;37.340;2023-02-10T11:52:12;46663.63;;;-143.51;98.86
44309;BME280;30022;55.846;37.340;2023-02-10T11:54:39;46663.63;;;-143.51;97.09
44309;BME280;30022;55.846;37.340;2023-02-10T12:00:19;46685.34;;;-143.51;98.18
44309;BME280;30022;55.846;37.340;2023-02-10T12:08:32;46655.72;;;-143.51;98.21
44309;BME280;30022;55.846;37.340;2023-02-10T12:18:40;46651.75;;;-143.51;97.25
44309;BME280;30022;55.846;37.340;2023-02-10T12:26:42;46653.75;;;-143.51;96.02
44309;BME280;30022;55.846;37.340;2023-02-10T12:39:42;46632.03;;;-143.51;98.17
44309;BME280;30022;55.846;37.340;2023-02-10T12:45:03;46645.84;;;-143.51;99.96
44309;BME280;30022;55.846;37.340;2023-02-10T12:50:30;46679.41;;;-143.51;100.00
44309;BME280;30022;55.846;37.340;2023-02-10T12:55:32;46667.56;;;-143.51;96.82
44309;BME280;30022;55.846;37.340;2023-02-10T12:58:00;46663.63;;;-143.51;96.32
44309;BME280;30022;55.846;37.340;2023-02-10T13:00:44;46681.38;;;-143.51;97.30
44309;BME280;30022;55.846;37.340;2023-02-10T13:03:23;46663.63;;;-143.51;97.90
44309;BME280;30022;55.846;37.340;2023-02-10T13:05:59;46649.78;;;-143.51;99.55
44309;BME280;30022;55.846;37.340;2023-02-10T13:08:36;46669.53;;;-143.51;99.60
44309;BME280;30022;55.846;37.340;2023-02-10T13:11:19;46669.53;;;-143.51;100.00
44309;BME280;30022;55.846;37.340;2023-02-10T13:13:47;46677.44;;;-143.51;98.28
44309;BME280;30022;55.846;37.340;2023-02-10T13:16:17;46687.31;;;-143.51;100.00
44309;BME280;30022;55.846;37.340;2023-02-10T13:21:47;46671.50;;;-143.51;100.00
44309;BME280;30022;55.846;37.340;2023-02-10T13:24:06;46671.50;;;-143.51;100.00
44309;BME280;30022;55.846;37.340;2023-02-10T13:26:47;46667.56;;;-143.51;100.00
44309;BME280;30022;55.846;37.340;2023-02-10T13:29:42;46655.72;;;-143.51;100.00
44309;BME280;30022;55.846;37.340;2023-02-10T13:34:44;46665.59;;;-143.51;100.00
44309;BME280;30022;55.846;37.340;2023-02-10T13:39:57;46647.81;;;-143.51;100.00
44309;BME280;30022;55.846;37.340;2023-02-10T13:42:26;46665.59;;;-143.51;100.00
44309;BME280;30022;55.846;37.340;2023-02-10T13:45:35;46669.53;;;-143.51;100.00
44309;BME280;30022;55.846;37.340;2023-02-10T13:47:46;46655.72;;;-143.51;99.99
44309;BME280;30022;55.846;37.340;2023-02-10T13:52:48;46647.81;;;-143.51;100.00
44309;BME280;30022;55.846;37.340;2023-02-10T13:57:50;46643.88;;;-143.51;100.00
44309;BME280;30022;55.846;37.340;2023-02-10T14:00:20;46643.88;;;-143.51;100.00
44309;BME280;30022;55.846;37.340;2023-02-10T14:07:54;46669.53;;;-143.51;100.00
44309;BME280;30022;55.846;37.340;2023-02-10T14:12:56;46669.53;;;-143.51;100.00
44309;BME280;30022;55.846;37.340;2023-02-10T14:15:24;46657.69;;;-143.51;100.00